createdAt,value
2016-09-21T00:00:58.981Z,22.48
2016-09-21T00:01:57.803Z,22.44
2016-09-21T00:02:57.745Z,22.55
2016-09-21T00:03:57.686Z,22.51
2016-09-21T00:04:57.627Z,22.45
2016-09-21T00:05:57.564Z,22.48
2016-09-21T00:06:57.501Z,22.45
2016-09-21T00:07:57.439Z,22.54
2016-09-21T00:08:57.378Z,22.44
2016-09-21T00:09:57.330Z,22.43
2016-09-21T00:10:57.253Z,22.44
2016-09-21T00:11:57.510Z,22.53
2016-09-21T00:12:57.141Z,22.44
2016-09-21T00:13:57.074Z,22.44
2016-09-21T00:14:57.014Z,22.51
2016-09-21T00:15:56.951Z,22.44
2016-09-21T00:16:56.891Z,22.47
2016-09-21T00:17:56.828Z,22.51
2016-09-21T00:18:56.769Z,22.48
2016-09-21T00:19:56.708Z,22.44
2016-09-21T00:20:56.961Z,22.44
2016-09-21T00:21:56.585Z,22.44
2016-09-21T00:22:56.526Z,22.47
2016-09-21T00:23:56.464Z,22.47
2016-09-21T00:24:56.408Z,22.44
2016-09-21T00:25:56.337Z,22.43
2016-09-21T00:26:56.282Z,22.54
2016-09-21T00:27:56.531Z,22.53
2016-09-21T00:28:56.467Z,22.47
2016-09-21T00:29:56.095Z,22.5
2016-09-21T00:30:56.033Z,22.48
2016-09-21T00:31:55.974Z,22.5
2016-09-21T00:32:56.234Z,22.5
2016-09-21T00:33:55.852Z,22.47
2016-09-21T00:34:55.793Z,22.51
2016-09-21T00:35:55.733Z,22.53
2016-09-21T00:36:55.670Z,22.47
2016-09-21T00:37:55.608Z,22.5
2016-09-21T00:38:55.547Z,22.5
2016-09-21T00:39:55.489Z,22.5
2016-09-21T00:40:55.422Z,22.43
2016-09-21T00:41:55.365Z,22.48
2016-09-21T00:42:55.628Z,22.47
2016-09-21T00:43:55.244Z,22.44
2016-09-21T00:44:55.183Z,22.44
2016-09-21T00:45:55.132Z,22.48
2016-09-21T00:46:55.057Z,22.54
2016-09-21T00:47:54.998Z,22.45
2016-09-21T00:48:54.933Z,22.43
2016-09-21T00:49:54.879Z,22.45
2016-09-21T00:50:55.129Z,22.51
2016-09-21T00:51:54.753Z,22.44
2016-09-21T00:52:54.693Z,22.45
2016-09-21T00:53:54.743Z,22.48
2016-09-21T00:54:54.573Z,22.45
2016-09-21T00:55:54.832Z,22.44
2016-09-21T00:56:54.450Z,22.51
2016-09-21T00:57:54.703Z,22.47
2016-09-21T00:58:54.328Z,22.47
2016-09-21T00:59:54.266Z,22.45
2016-09-21T01:00:54.205Z,22.45
2016-09-21T01:01:54.141Z,22.53
2016-09-21T01:02:54.083Z,22.44
2016-09-21T01:03:54.023Z,22.47
2016-09-21T01:04:53.967Z,22.45
2016-09-21T01:05:53.899Z,22.41
2016-09-21T01:06:53.839Z,22.51
2016-09-21T01:07:53.786Z,22.48
2016-09-21T01:08:53.720Z,22.45
2016-09-21T01:09:53.662Z,22.41
2016-09-21T01:10:53.596Z,22.48
2016-09-21T01:11:53.534Z,22.44
2016-09-21T01:12:53.475Z,22.44
2016-09-21T01:13:53.414Z,22.5
2016-09-21T01:14:53.352Z,22.41
2016-09-21T01:15:53.291Z,22.5
2016-09-21T01:16:53.228Z,22.45
2016-09-21T01:17:53.171Z,22.5
2016-09-21T01:18:53.107Z,22.35
2016-09-21T01:19:53.047Z,22.45
2016-09-21T01:20:52.984Z,22.47
2016-09-21T01:21:53.233Z,22.43
2016-09-21T01:22:52.863Z,22.43
2016-09-21T01:23:52.802Z,22.45
2016-09-21T01:24:52.745Z,22.45
2016-09-21T01:25:52.688Z,22.44
2016-09-21T01:26:52.635Z,22.51
2016-09-21T01:27:52.877Z,22.48
2016-09-21T01:28:52.811Z,22.45
2016-09-21T01:29:52.435Z,22.43
2016-09-21T01:30:52.381Z,22.43
2016-09-21T01:31:52.317Z,22.51
2016-09-21T01:32:52.257Z,22.45
2016-09-21T01:33:52.191Z,22.47
2016-09-21T01:34:52.130Z,22.41
2016-09-21T01:35:52.070Z,22.45
2016-09-21T01:36:52.011Z,22.47
2016-09-21T01:37:51.948Z,22.45
2016-09-21T01:38:51.886Z,22.44
2016-09-21T01:39:51.825Z,22.51
2016-09-21T01:40:51.765Z,22.33
2016-09-21T01:41:51.704Z,22.45
2016-09-21T01:42:51.645Z,22.44
2016-09-21T01:43:51.580Z,22.5
2016-09-21T01:44:51.521Z,22.41
2016-09-21T01:45:51.608Z,22.44
2016-09-21T01:46:51.397Z,22.45
2016-09-21T01:47:51.337Z,22.39
2016-09-21T01:48:51.276Z,22.41
2016-09-21T01:49:51.528Z,22.43
2016-09-21T01:50:51.155Z,22.45
2016-09-21T01:51:51.403Z,22.48
2016-09-21T01:52:51.029Z,22.44
2016-09-21T01:53:50.975Z,22.43
2016-09-21T01:54:50.918Z,22.47
2016-09-21T01:55:50.849Z,22.45
2016-09-21T01:56:50.787Z,22.51
2016-09-21T01:57:50.727Z,22.5
2016-09-21T01:58:50.676Z,22.45
2016-09-21T01:59:50.621Z,22.41
2016-09-21T02:00:50.543Z,22.45
2016-09-21T02:01:50.483Z,22.39
2016-09-21T02:02:50.744Z,22.43
2016-09-21T02:03:50.675Z,22.47
2016-09-21T02:04:50.297Z,22.44
2016-09-21T02:05:50.238Z,22.47
2016-09-21T02:06:50.183Z,22.5
2016-09-21T02:07:50.119Z,22.45
2016-09-21T02:08:50.057Z,22.41
2016-09-21T02:09:50.010Z,22.48
2016-09-21T02:10:49.933Z,22.43
2016-09-21T02:11:49.889Z,22.41
2016-09-21T02:12:49.809Z,22.36
2016-09-21T02:13:49.750Z,22.41
2016-09-21T02:14:49.690Z,22.39
2016-09-21T02:15:49.632Z,22.41
2016-09-21T02:16:49.579Z,22.43
2016-09-21T02:17:49.509Z,22.41
2016-09-21T02:18:49.446Z,22.44
2016-09-21T02:19:49.389Z,22.44
2016-09-21T02:20:49.322Z,22.47
2016-09-21T02:21:49.587Z,22.36
2016-09-21T02:22:49.200Z,22.43
2016-09-21T02:23:49.140Z,22.44
2016-09-21T02:24:49.084Z,22.39
2016-09-21T02:25:49.017Z,22.45
2016-09-21T02:26:48.955Z,22.43
2016-09-21T02:27:48.892Z,22.43
2016-09-21T02:28:48.836Z,22.41
2016-09-21T02:29:48.773Z,22.45
2016-09-21T02:30:48.716Z,22.41
2016-09-21T02:31:48.654Z,22.44
2016-09-21T02:32:48.591Z,22.36
2016-09-21T02:33:48.539Z,22.41
2016-09-21T02:34:48.471Z,22.43
2016-09-21T02:35:48.409Z,22.44
2016-09-21T02:36:48.351Z,22.44
2016-09-21T02:37:48.284Z,22.44
2016-09-21T02:38:48.233Z,22.41
2016-09-21T02:39:48.165Z,22.45
2016-09-21T02:40:48.101Z,22.47
2016-09-21T02:41:48.048Z,22.41
2016-09-21T02:42:47.978Z,22.41
2016-09-21T02:43:47.929Z,22.44
2016-09-21T02:44:47.859Z,22.41
2016-09-21T02:45:47.799Z,22.43
2016-09-21T02:46:47.739Z,22.41
2016-09-21T02:47:47.986Z,22.41
2016-09-21T02:48:47.615Z,22.45
2016-09-21T02:49:47.559Z,22.48
2016-09-21T02:50:47.493Z,22.48
2016-09-21T02:51:47.433Z,22.38
2016-09-21T02:52:47.373Z,22.32
2016-09-21T02:53:47.625Z,22.38
2016-09-21T02:54:47.249Z,22.39
2016-09-21T02:55:47.191Z,22.45
2016-09-21T02:56:47.127Z,22.45
2016-09-21T02:57:47.067Z,22.48
2016-09-21T02:58:47.017Z,22.5
2016-09-21T02:59:46.949Z,22.45
2016-09-21T03:00:46.880Z,22.43
2016-09-21T03:01:46.822Z,22.47
2016-09-21T03:02:46.764Z,22.44
2016-09-21T03:03:46.699Z,22.44
2016-09-21T03:04:46.637Z,22.45
2016-09-21T03:05:46.599Z,22.38
2016-09-21T03:06:46.835Z,22.51
2016-09-21T03:07:46.464Z,22.41
2016-09-21T03:08:46.395Z,22.47
2016-09-21T03:09:46.335Z,22.47
2016-09-21T03:10:46.272Z,22.45
2016-09-21T03:11:46.248Z,22.41
2016-09-21T03:12:46.478Z,22.43
2016-09-21T03:13:46.090Z,22.39
2016-09-21T03:14:46.030Z,22.43
2016-09-21T03:15:45.967Z,22.39
2016-09-21T03:16:45.908Z,22.41
2016-09-21T03:17:45.847Z,22.38
2016-09-21T03:18:45.801Z,22.36
2016-09-21T03:19:45.725Z,22.36
2016-09-21T03:20:45.662Z,22.43
2016-09-21T03:21:45.924Z,22.32
2016-09-21T03:22:45.542Z,22.35
2016-09-21T03:23:45.480Z,22.43
2016-09-21T03:24:45.424Z,22.36
2016-09-21T03:25:45.378Z,22.41
2016-09-21T03:26:45.295Z,22.36
2016-09-21T03:27:45.257Z,22.36
2016-09-21T03:28:45.192Z,22.41
2016-09-21T03:29:45.117Z,22.38
2016-09-21T03:30:45.060Z,22.44
2016-09-21T03:31:44.996Z,22.44
2016-09-21T03:32:44.936Z,22.41
2016-09-21T03:33:44.870Z,22.35
2016-09-21T03:34:44.811Z,22.43
2016-09-21T03:35:44.746Z,22.38
2016-09-21T03:36:44.689Z,22.43
2016-09-21T03:37:44.640Z,22.32
2016-09-21T03:38:44.568Z,22.38
2016-09-21T03:39:44.505Z,22.33
2016-09-21T03:40:44.444Z,22.36
2016-09-21T03:41:44.383Z,22.33
2016-09-21T03:42:44.333Z,22.38
2016-09-21T03:43:44.578Z,22.35
2016-09-21T03:44:44.204Z,22.39
2016-09-21T03:45:44.147Z,22.38
2016-09-21T03:46:44.082Z,22.35
2016-09-21T03:47:44.015Z,22.43
2016-09-21T03:48:43.971Z,22.35
2016-09-21T03:49:43.894Z,22.38
2016-09-21T03:50:43.838Z,22.45
2016-09-21T03:51:43.774Z,22.39
2016-09-21T03:52:43.710Z,22.36
2016-09-21T03:53:43.652Z,22.33
2016-09-21T03:54:43.590Z,22.38
2016-09-21T03:55:43.531Z,22.33
2016-09-21T03:56:43.488Z,22.38
2016-09-21T03:57:43.404Z,22.33
2016-09-21T03:58:43.349Z,22.32
2016-09-21T03:59:43.287Z,22.43
2016-09-21T04:00:43.226Z,22.44
2016-09-21T04:01:43.164Z,22.35
2016-09-21T04:02:43.100Z,22.38
2016-09-21T04:03:43.042Z,22.38
2016-09-21T04:04:42.979Z,22.32
2016-09-21T04:05:42.916Z,22.38
2016-09-21T04:06:42.860Z,22.36
2016-09-21T04:07:42.795Z,22.33
2016-09-21T04:08:42.736Z,22.36
2016-09-21T04:09:42.673Z,22.43
2016-09-21T04:10:42.613Z,22.36
2016-09-21T04:11:42.552Z,22.33
2016-09-21T04:12:42.498Z,22.25
2016-09-21T04:13:42.434Z,22.33
2016-09-21T04:14:42.696Z,22.41
2016-09-21T04:15:42.311Z,22.41
2016-09-21T04:16:42.243Z,22.36
2016-09-21T04:17:42.191Z,22.43
2016-09-21T04:18:42.124Z,22.44
2016-09-21T04:19:42.066Z,22.43
2016-09-21T04:20:42.003Z,22.39
2016-09-21T04:21:41.940Z,22.41
2016-09-21T04:22:41.879Z,22.36
2016-09-21T04:23:41.832Z,22.43
2016-09-21T04:24:41.759Z,22.43
2016-09-21T04:25:41.700Z,22.43
2016-09-21T04:26:41.947Z,22.41
2016-09-21T04:27:41.896Z,22.36
2016-09-21T04:28:41.512Z,22.36
2016-09-21T04:29:41.453Z,22.47
2016-09-21T04:30:41.394Z,22.39
2016-09-21T04:31:41.333Z,22.47
2016-09-21T04:32:41.275Z,22.43
2016-09-21T04:33:41.208Z,22.44
2016-09-21T04:34:41.148Z,22.38
2016-09-21T04:35:41.088Z,22.39
2016-09-21T04:36:41.030Z,22.39
2016-09-21T04:37:40.965Z,22.41
2016-09-21T04:38:40.903Z,22.39
2016-09-21T04:39:40.848Z,22.48
2016-09-21T04:40:40.783Z,22.44
2016-09-21T04:41:40.727Z,22.43
2016-09-21T04:42:40.659Z,22.43
2016-09-21T04:43:40.597Z,22.43
2016-09-21T04:44:40.537Z,22.43
2016-09-21T04:45:40.797Z,22.45
2016-09-21T04:46:40.419Z,22.43
2016-09-21T04:47:40.352Z,22.44
2016-09-21T04:48:40.292Z,22.5
2016-09-21T04:49:40.234Z,22.43
2016-09-21T04:50:40.172Z,22.41
2016-09-21T04:51:40.112Z,22.43
2016-09-21T04:52:40.059Z,22.5
2016-09-21T04:53:40.299Z,22.45
2016-09-21T04:54:39.925Z,22.38
2016-09-21T04:55:39.870Z,22.43
2016-09-21T04:56:39.806Z,22.41
2016-09-21T04:57:39.742Z,22.5
2016-09-21T04:58:39.683Z,22.43
2016-09-21T04:59:39.619Z,22.41
2016-09-21T05:00:39.565Z,22.43
2016-09-21T05:01:39.505Z,22.43
2016-09-21T05:02:39.453Z,22.45
2016-09-21T05:03:39.390Z,22.44
2016-09-21T05:04:39.324Z,22.51
2016-09-21T05:05:39.263Z,22.36
2016-09-21T05:06:39.191Z,22.43
2016-09-21T05:07:39.139Z,22.41
2016-09-21T05:08:39.081Z,22.43
2016-09-21T05:09:39.018Z,22.45
2016-09-21T05:10:39.575Z,22.43
2016-09-21T05:11:38.888Z,22.47
2016-09-21T05:12:38.830Z,22.43
2016-09-21T05:13:38.770Z,22.41
2016-09-21T05:14:38.709Z,22.5
2016-09-21T05:15:38.649Z,22.51
2016-09-21T05:16:38.585Z,22.43
2016-09-21T05:17:38.525Z,22.43
2016-09-21T05:18:38.461Z,22.41
2016-09-21T05:19:39.818Z,22.44
2016-09-21T05:20:38.345Z,22.48
2016-09-21T05:21:38.282Z,22.44
2016-09-21T05:22:38.219Z,22.48
2016-09-21T05:23:38.476Z,22.51
2016-09-21T05:24:38.108Z,22.5
2016-09-21T05:25:38.042Z,22.45
2016-09-21T05:26:37.994Z,22.51
2016-09-21T05:27:37.918Z,22.44
2016-09-21T05:28:37.853Z,22.51
2016-09-21T05:29:37.794Z,22.47
2016-09-21T05:30:37.735Z,22.48
2016-09-21T05:31:37.678Z,22.43
2016-09-21T05:32:37.624Z,22.48
2016-09-21T05:33:37.551Z,22.39
2016-09-21T05:34:37.496Z,22.48
2016-09-21T05:35:37.425Z,22.45
2016-09-21T05:36:37.372Z,22.47
2016-09-21T05:37:37.306Z,22.44
2016-09-21T05:38:37.248Z,22.44
2016-09-21T05:39:37.180Z,22.44
2016-09-21T05:40:37.122Z,22.47
2016-09-21T05:41:37.370Z,22.44
2016-09-21T05:42:37.312Z,22.48
2016-09-21T05:43:36.952Z,22.43
2016-09-21T05:44:37.189Z,22.47
2016-09-21T05:45:36.817Z,22.48
2016-09-21T05:46:36.760Z,22.47
2016-09-21T05:47:36.701Z,22.47
2016-09-21T05:48:36.636Z,22.48
2016-09-21T05:49:36.575Z,22.47
2016-09-21T05:50:36.727Z,22.51
2016-09-21T05:51:36.465Z,22.5
2016-09-21T05:52:36.391Z,22.54
2016-09-21T05:53:36.332Z,22.43
2016-09-21T05:54:36.266Z,22.51
2016-09-21T05:55:36.206Z,22.41
2016-09-21T05:56:36.165Z,22.48
2016-09-21T05:57:36.096Z,22.54
2016-09-21T05:58:36.043Z,22.51
2016-09-21T05:59:35.965Z,22.48
2016-09-21T06:00:35.905Z,22.48
2016-09-21T06:01:35.844Z,22.45
2016-09-21T06:02:36.103Z,22.54
2016-09-21T06:03:35.719Z,22.57
2016-09-21T06:04:35.663Z,22.47
2016-09-21T06:05:35.604Z,22.51
2016-09-21T06:06:35.540Z,22.53
2016-09-21T06:07:35.479Z,22.59
2016-09-21T06:08:35.424Z,22.55
2016-09-21T06:09:35.359Z,22.51
2016-09-21T06:10:35.293Z,22.44
2016-09-21T06:11:35.252Z,22.5
2016-09-21T06:12:35.173Z,22.53
2016-09-21T06:13:35.122Z,22.44
2016-09-21T06:14:35.061Z,22.6
2016-09-21T06:15:34.985Z,22.55
2016-09-21T06:16:34.929Z,22.55
2016-09-21T06:17:34.867Z,22.5
2016-09-21T06:18:35.130Z,22.48
2016-09-21T06:19:34.747Z,22.51
2016-09-21T06:20:34.682Z,22.59
2016-09-21T06:21:34.624Z,22.5
2016-09-21T06:22:34.562Z,22.5
2016-09-21T06:23:34.501Z,22.59
2016-09-21T06:24:34.631Z,22.53
2016-09-21T06:25:34.391Z,22.51
2016-09-21T06:26:34.324Z,22.53
2016-09-21T06:27:34.293Z,22.51
2016-09-21T06:28:34.196Z,22.54
2016-09-21T06:29:34.143Z,22.6
2016-09-21T06:30:34.072Z,22.54
2016-09-21T06:31:34.028Z,22.54
2016-09-21T06:32:33.951Z,22.47
2016-09-21T06:33:33.900Z,22.54
2016-09-21T06:34:33.830Z,22.54
2016-09-21T06:35:33.767Z,22.54
2016-09-21T06:36:33.712Z,22.6
2016-09-21T06:37:33.645Z,22.62
2016-09-21T06:38:33.592Z,22.54
2016-09-21T06:39:33.523Z,22.59
2016-09-21T06:40:33.465Z,22.57
2016-09-21T06:41:33.401Z,22.57
2016-09-21T06:42:33.343Z,22.59
2016-09-21T06:43:33.287Z,22.54
2016-09-21T06:44:33.224Z,22.59
2016-09-21T06:45:48.037Z,22.57
2016-09-21T06:46:33.113Z,22.53
2016-09-21T06:47:33.039Z,22.51
2016-09-21T06:48:32.983Z,22.54
2016-09-21T06:49:32.914Z,22.55
2016-09-21T06:50:32.853Z,22.55
2016-09-21T06:51:32.800Z,22.54
2016-09-21T06:52:32.736Z,22.57
2016-09-21T06:53:32.674Z,22.57
2016-09-21T06:54:32.615Z,22.53
2016-09-21T06:55:32.552Z,22.57
2016-09-21T06:56:32.800Z,22.54
2016-09-21T06:57:32.433Z,22.53
2016-09-21T06:58:32.685Z,22.57
2016-09-21T06:59:32.307Z,22.57
2016-09-21T07:00:32.246Z,22.55
2016-09-21T07:01:32.192Z,22.59
2016-09-21T07:02:32.160Z,22.57
2016-09-21T07:03:32.077Z,22.57
2016-09-21T07:04:31.998Z,22.59
2016-09-21T07:05:31.941Z,22.63
2016-09-21T07:06:31.889Z,22.6
2016-09-21T07:07:31.829Z,22.59
2016-09-21T07:08:31.763Z,22.54
2016-09-21T07:09:31.697Z,22.54
2016-09-21T07:10:31.639Z,22.57
2016-09-21T07:11:31.593Z,22.57
2016-09-21T07:12:31.530Z,22.57
2016-09-21T07:13:31.788Z,22.55
2016-09-21T07:14:31.759Z,22.59
2016-09-21T07:15:31.368Z,22.62
2016-09-21T07:16:31.307Z,22.55
2016-09-21T07:17:31.466Z,22.59
2016-09-21T07:18:31.475Z,22.59
2016-09-21T07:19:31.091Z,22.54
2016-09-21T07:20:31.056Z,22.57
2016-09-21T07:21:30.961Z,22.59
2016-09-21T07:22:31.225Z,22.62
2016-09-21T07:23:30.854Z,22.51
2016-09-21T07:24:31.236Z,22.62
2016-09-21T07:25:30.976Z,22.54
2016-09-21T07:26:30.661Z,22.62
2016-09-21T07:27:30.922Z,22.62
2016-09-21T07:28:30.547Z,22.6
2016-09-21T07:29:30.482Z,22.62
2016-09-21T07:30:30.420Z,22.57
2016-09-21T07:31:30.359Z,22.6
2016-09-21T07:32:30.300Z,22.57
2016-09-21T07:33:30.237Z,22.55
2016-09-21T07:34:30.184Z,22.59
2016-09-21T07:35:30.121Z,22.51
2016-09-21T07:36:30.377Z,22.54
2016-09-21T07:37:30.050Z,22.51
2016-09-21T07:38:30.246Z,22.63
2016-09-21T07:39:29.870Z,22.59
2016-09-21T07:40:29.824Z,22.59
2016-09-21T07:41:29.776Z,22.57
2016-09-21T07:42:29.704Z,22.59
2016-09-21T07:43:29.645Z,22.6
2016-09-21T07:44:29.875Z,22.59
2016-09-21T07:45:29.515Z,22.59
2016-09-21T07:46:29.450Z,22.62
2016-09-21T07:47:29.700Z,22.62
2016-09-21T07:48:29.325Z,22.55
2016-09-21T07:49:29.271Z,22.65
2016-09-21T07:50:29.770Z,22.57
2016-09-21T07:51:29.154Z,22.66
2016-09-21T07:52:29.396Z,22.69
2016-09-21T07:53:29.331Z,22.57
2016-09-21T07:54:28.956Z,22.6
2016-09-21T07:55:28.904Z,22.63
2016-09-21T07:56:28.835Z,22.65
2016-09-21T07:57:29.097Z,22.54
2016-09-21T07:58:28.713Z,22.68
2016-09-21T07:59:28.654Z,22.63
2016-09-21T08:00:28.595Z,22.62
2016-09-21T08:01:28.541Z,22.57
2016-09-21T08:02:28.807Z,22.69
2016-09-21T08:03:28.428Z,22.66
2016-09-21T08:04:28.351Z,22.57
2016-09-21T08:05:28.289Z,22.66
2016-09-21T08:06:28.243Z,22.63
2016-09-21T08:07:28.174Z,22.69
2016-09-21T08:08:28.119Z,22.62
2016-09-21T08:09:28.053Z,22.66
2016-09-21T08:10:27.997Z,22.68
2016-09-21T08:11:28.127Z,22.66
2016-09-21T08:12:27.888Z,22.66
2016-09-21T08:13:27.808Z,22.65
2016-09-21T08:14:27.746Z,22.62
2016-09-21T08:15:27.679Z,22.63
2016-09-21T08:16:27.622Z,22.65
2016-09-21T08:17:27.560Z,22.6
2016-09-21T08:18:27.769Z,22.63
2016-09-21T08:19:27.452Z,22.62
2016-09-21T08:20:27.670Z,22.63
2016-09-21T08:21:27.312Z,22.65
2016-09-21T08:22:27.791Z,22.59
2016-09-21T08:23:27.537Z,22.65
2016-09-21T08:24:27.455Z,22.65
2016-09-21T08:25:27.327Z,22.69
2016-09-21T08:26:27.019Z,22.63
2016-09-21T08:27:27.290Z,22.63
2016-09-21T08:28:26.898Z,22.63
2016-09-21T08:29:27.050Z,22.68
2016-09-21T08:30:26.778Z,22.69
2016-09-21T08:31:26.961Z,22.62
2016-09-21T08:32:26.652Z,22.7
2016-09-21T08:33:26.848Z,22.69
2016-09-21T08:34:26.733Z,22.62
2016-09-21T08:35:26.690Z,22.62
2016-09-21T08:36:26.443Z,22.65
2016-09-21T08:37:26.343Z,22.6
2016-09-21T08:38:26.318Z,22.7
2016-09-21T08:39:26.224Z,22.62
2016-09-21T08:40:26.480Z,22.66
2016-09-21T08:41:26.099Z,22.57
2016-09-21T08:42:26.037Z,22.62
2016-09-21T08:43:26.063Z,22.57
2016-09-21T08:44:25.921Z,22.51
2016-09-21T08:45:25.860Z,22.6
2016-09-21T08:46:25.829Z,22.55
2016-09-21T08:47:25.763Z,22.6
2016-09-21T08:48:25.676Z,22.6
2016-09-21T08:49:25.935Z,22.59
2016-09-21T08:50:25.574Z,22.54
2016-09-21T08:51:25.490Z,22.62
2016-09-21T08:52:25.433Z,22.68
2016-09-21T08:53:25.385Z,22.6
2016-09-21T08:54:25.315Z,22.55
2016-09-21T08:55:25.255Z,22.65
2016-09-21T08:56:25.198Z,22.84
2016-09-21T08:57:25.145Z,22.76
2016-09-21T08:58:25.064Z,22.81
2016-09-21T08:59:25.042Z,22.81
2016-09-21T09:00:25.266Z,22.83
2016-09-21T09:01:24.924Z,22.76
2016-09-21T09:02:24.841Z,22.72
2016-09-21T09:03:25.107Z,22.81
2016-09-21T09:04:24.710Z,22.72
2016-09-21T09:05:24.645Z,22.84
2016-09-21T09:06:24.596Z,22.78
2016-09-21T09:07:24.523Z,22.76
2016-09-21T09:08:24.474Z,22.81
2016-09-21T09:09:24.434Z,22.76
2016-09-21T09:10:24.352Z,22.83
2016-09-21T09:11:24.597Z,22.8
2016-09-21T09:12:24.227Z,22.76
2016-09-21T09:13:24.162Z,22.81
2016-09-21T09:14:24.157Z,22.73
2016-09-21T09:15:24.294Z,22.72
2016-09-21T09:16:23.977Z,22.73
2016-09-21T09:17:23.914Z,22.75
2016-09-21T09:18:23.856Z,22.76
2016-09-21T09:19:24.102Z,22.7
2016-09-21T09:20:24.056Z,22.69
2016-09-21T09:21:23.690Z,22.8
2016-09-21T09:22:23.613Z,22.6
2016-09-21T09:23:23.547Z,22.75
2016-09-21T09:24:23.495Z,22.63
2016-09-21T09:25:23.727Z,22.72
2016-09-21T09:26:23.613Z,22.62
2016-09-21T09:27:23.337Z,22.7
2016-09-21T09:28:23.251Z,22.66
2016-09-21T09:29:23.197Z,22.62
2016-09-21T09:30:23.454Z,22.63
2016-09-21T09:31:23.066Z,22.66
2016-09-21T09:32:23.008Z,22.62
2016-09-21T09:33:22.960Z,22.7
2016-09-21T09:34:22.884Z,22.68
2016-09-21T09:35:22.822Z,22.6
2016-09-21T09:36:22.796Z,22.62
2016-09-21T09:37:22.721Z,22.75
2016-09-21T09:38:22.938Z,22.66
2016-09-21T09:39:22.583Z,22.59
2016-09-21T09:40:22.512Z,22.69
2016-09-21T09:41:22.461Z,22.62
2016-09-21T09:42:22.712Z,22.63
2016-09-21T09:43:22.357Z,22.7
2016-09-21T09:44:22.283Z,22.66
2016-09-21T09:45:22.784Z,22.66
2016-09-21T09:46:22.160Z,22.73
2016-09-21T09:47:22.099Z,22.62
2016-09-21T09:48:22.280Z,22.6
2016-09-21T09:49:22.287Z,22.63
2016-09-21T09:50:21.913Z,22.62
2016-09-21T09:51:21.863Z,22.66
2016-09-21T09:52:22.001Z,22.7
2016-09-21T09:53:21.752Z,22.66
2016-09-21T09:54:21.664Z,22.68
2016-09-21T09:55:21.906Z,22.63
2016-09-21T09:56:21.564Z,22.63
2016-09-21T09:57:21.501Z,22.66
2016-09-21T09:58:22.203Z,22.65
2016-09-21T09:59:21.365Z,22.6
2016-09-21T10:00:21.325Z,22.62
2016-09-21T10:01:21.306Z,22.65
2016-09-21T10:02:21.407Z,22.7
2016-09-21T10:03:21.124Z,22.63
2016-09-21T10:04:21.587Z,22.63
2016-09-21T10:05:21.014Z,22.57
2016-09-21T10:06:20.939Z,22.66
2016-09-21T10:07:20.930Z,22.63
2016-09-21T10:08:20.874Z,22.63
2016-09-21T10:09:21.302Z,22.73
2016-09-21T10:10:20.705Z,22.68
2016-09-21T10:11:20.866Z,22.63
2016-09-21T10:12:20.899Z,22.62
2016-09-21T10:13:20.909Z,22.62
2016-09-21T10:15:20.420Z,22.65
2016-09-21T10:16:20.337Z,22.66
2016-09-21T10:17:20.581Z,22.66
2016-09-21T10:18:20.224Z,22.63
2016-09-21T10:19:20.153Z,22.66
2016-09-21T10:20:20.091Z,22.65
2016-09-21T10:21:20.034Z,22.57
2016-09-21T10:22:19.968Z,22.66
2016-09-21T10:23:19.903Z,22.68
2016-09-21T10:24:20.142Z,22.53
2016-09-21T10:25:19.786Z,22.57
2016-09-21T10:26:19.724Z,22.53
2016-09-21T10:27:19.971Z,22.54
2016-09-21T10:28:19.620Z,22.57
2016-09-21T10:29:19.550Z,22.59
2016-09-21T10:30:19.504Z,22.68
2016-09-21T10:31:19.434Z,22.55
2016-09-21T10:32:19.364Z,22.48
2016-09-21T10:33:19.306Z,22.59
2016-09-21T10:34:19.253Z,22.63
2016-09-21T10:35:19.489Z,22.57
2016-09-21T10:36:19.444Z,22.62
2016-09-21T10:37:19.069Z,22.65
2016-09-21T10:38:19.638Z,22.68
2016-09-21T10:39:19.247Z,22.55
2016-09-21T10:40:18.876Z,22.63
2016-09-21T10:41:18.829Z,22.69
2016-09-21T10:42:18.775Z,22.6
2016-09-21T10:43:19.321Z,22.62
2016-09-21T10:44:18.639Z,22.57
2016-09-21T10:45:18.570Z,22.57
2016-09-21T10:46:18.511Z,22.51
2016-09-21T10:47:18.762Z,22.59
2016-09-21T10:48:18.383Z,22.59
2016-09-21T10:49:18.329Z,22.57
2016-09-21T10:50:18.273Z,22.62
2016-09-21T10:51:18.527Z,22.55
2016-09-21T10:52:18.149Z,22.54
2016-09-21T10:53:18.086Z,22.59
2016-09-21T10:54:18.017Z,22.51
2016-09-21T10:55:17.970Z,22.54
2016-09-21T10:56:17.904Z,22.59
2016-09-21T10:57:17.849Z,22.57
2016-09-21T10:58:17.808Z,22.51
2016-09-21T10:59:17.726Z,22.54
2016-09-21T11:00:17.666Z,22.55
2016-09-21T11:01:17.606Z,22.57
2016-09-21T11:02:17.552Z,22.51
2016-09-21T11:03:17.702Z,22.53
2016-09-21T11:04:17.731Z,22.59
2016-09-21T11:05:17.370Z,22.65
2016-09-21T11:06:17.294Z,22.55
2016-09-21T11:07:17.776Z,22.57
2016-09-21T11:08:17.189Z,22.6
2016-09-21T11:09:17.426Z,22.6
2016-09-21T11:10:17.062Z,22.54
2016-09-21T11:11:16.985Z,22.54
2016-09-21T11:12:17.441Z,22.55
2016-09-21T11:13:16.867Z,22.5
2016-09-21T11:14:16.820Z,22.57
2016-09-21T11:15:16.753Z,22.59
2016-09-21T11:16:17.008Z,22.55
2016-09-21T11:17:16.634Z,22.57
2016-09-21T11:18:16.590Z,22.6
2016-09-21T11:19:16.516Z,22.57
2016-09-21T11:20:16.970Z,22.53
2016-09-21T11:21:16.392Z,22.5
2016-09-21T11:22:16.333Z,22.55
2016-09-21T11:23:16.583Z,22.6
2016-09-21T11:24:16.518Z,22.55
2016-09-21T11:25:16.493Z,22.63
2016-09-21T11:26:16.095Z,22.68
2016-09-21T11:27:16.020Z,22.72
2016-09-21T11:28:15.960Z,22.73
2016-09-21T11:29:16.153Z,22.8
2016-09-21T11:30:15.840Z,22.8
2016-09-21T11:31:15.806Z,22.75
2016-09-21T11:32:15.715Z,22.72
2016-09-21T11:33:15.662Z,22.75
2016-09-21T11:34:15.907Z,22.81
2016-09-21T11:35:15.541Z,22.81
2016-09-21T11:36:15.472Z,22.83
2016-09-21T11:37:16.228Z,22.8
2016-09-21T11:38:15.356Z,22.87
2016-09-21T11:39:15.614Z,22.81
2016-09-21T11:40:15.440Z,22.8
2016-09-21T11:41:15.514Z,22.8
2016-09-21T11:42:15.319Z,22.93
2016-09-21T11:43:15.059Z,23
2016-09-21T11:44:14.987Z,22.94
2016-09-21T11:45:14.946Z,23
2016-09-21T11:46:15.071Z,22.87
2016-09-21T11:47:14.840Z,22.88
2016-09-21T11:48:14.751Z,22.9
2016-09-21T11:49:14.697Z,22.99
2016-09-21T11:50:14.631Z,23.02
2016-09-21T11:51:14.888Z,23
2016-09-21T11:52:14.523Z,23
2016-09-21T11:53:14.449Z,22.96
2016-09-21T11:54:14.702Z,23.08
2016-09-21T11:55:14.589Z,23.12
2016-09-21T11:56:14.494Z,23.06
2016-09-21T11:57:14.518Z,23.08
2016-09-21T11:58:14.474Z,23.18
2016-09-21T11:59:14.296Z,23.06
2016-09-21T12:00:14.023Z,23.13
2016-09-21T12:01:13.986Z,23.15
2016-09-21T12:02:13.915Z,23.17
2016-09-21T12:03:13.851Z,23.12
2016-09-21T12:04:14.518Z,23.13
2016-09-21T12:05:13.719Z,23.21
2016-09-21T12:06:13.657Z,23.21
2016-09-21T12:07:13.619Z,23.2
2016-09-21T12:08:13.545Z,23.21
2016-09-21T12:09:13.800Z,23.15
2016-09-21T12:10:13.635Z,23.21
2016-09-21T12:11:13.373Z,23.21
2016-09-21T12:12:13.536Z,23.2
2016-09-21T12:13:13.241Z,23.25
2016-09-21T12:14:13.373Z,23.23
2016-09-21T12:15:13.113Z,23.25
2016-09-21T12:16:13.403Z,23.21
2016-09-21T12:17:13.000Z,23.27
2016-09-21T12:18:12.932Z,23.31
2016-09-21T12:19:12.877Z,23.31
2016-09-21T12:20:13.148Z,23.28
2016-09-21T12:21:12.756Z,23.27
2016-09-21T12:22:12.695Z,23.23
2016-09-21T12:23:12.853Z,23.21
2016-09-21T12:24:12.998Z,23.25
2016-09-21T12:25:12.825Z,23.27
2016-09-21T12:26:12.783Z,23.32
2016-09-21T12:27:12.911Z,23.31
2016-09-21T12:28:12.326Z,23.34
2016-09-21T12:29:12.592Z,23.28
2016-09-21T12:30:12.220Z,23.27
2016-09-21T12:31:12.160Z,23.31
2016-09-21T12:32:12.303Z,23.27
2016-09-21T12:33:12.354Z,23.34
2016-09-21T12:34:11.969Z,23.36
2016-09-21T12:35:11.912Z,23.25
2016-09-21T12:36:11.851Z,23.36
2016-09-21T12:37:12.015Z,23.4
2016-09-21T12:38:12.261Z,23.32
2016-09-21T12:39:11.667Z,23.37
2016-09-21T12:40:11.861Z,23.46
2016-09-21T12:41:11.556Z,23.39
2016-09-21T12:42:11.509Z,23.46
2016-09-21T12:43:11.444Z,23.41
2016-09-21T12:44:11.806Z,23.55
2016-09-21T12:45:11.335Z,23.47
2016-09-21T12:46:11.806Z,23.41
2016-09-21T12:47:11.191Z,23.46
2016-09-21T12:48:11.343Z,23.39
2016-09-21T12:49:11.076Z,23.36
2016-09-21T12:50:11.016Z,23.32
2016-09-21T12:51:11.169Z,23.28
2016-09-21T12:52:11.430Z,23.32
2016-09-21T12:53:11.090Z,23.2
2016-09-21T12:54:10.767Z,23.25
2016-09-21T12:55:11.032Z,23.28
2016-09-21T12:56:10.845Z,23.18